sensor_id;sensor_type;location;lat;lon;timestamp;pressure;altitude;pressure_sealevel;temperature;humidity
19736;BME280;32064;49.310;8.646;2022-08-21T00:01:19;100575.72;;;21.83;53.76
19736;BME280;32064;49.310;8.646;2022-08-21T00:03:45;100572.16;;;21.82;53.85
19736;BME280;32064;49.310;8.646;2022-08-21T00:06:11;100561.66;;;21.81;53.74
19736;BME280;32064;49.310;8.646;2022-08-21T00:08:36;100577.25;;;21.77;53.51
19736;BME280;32064;49.310;8.646;2022-08-21T00:11:02;100567.72;;;21.74;53.88
19736;BME280;32064;49.310;8.646;2022-08-21T00:13:28;100565.56;;;21.70;53.84
19736;BME280;32064;49.310;8.646;2022-08-21T00:15:53;100573.28;;;21.65;53.87
19736;BME280;32064;49.310;8.646;2022-08-21T00:18:19;100561.44;;;21.59;54.22
19736;BME280;32064;49.310;8.646;2022-08-21T00:20:46;100558.28;;;21.56;53.68
19736;BME280;32064;49.310;8.646;2022-08-21T00:23:12;100567.31;;;21.55;54.41
19736;BME280;32064;49.310;8.646;2022-08-21T00:25:39;100554.44;;;21.50;54.48
19736;BME280;32064;49.310;8.646;2022-08-21T00:28:04;100558.50;;;21.46;54.18
19736;BME280;32064;49.310;8.646;2022-08-21T00:30:32;100556.81;;;21.45;53.85
19736;BME280;32064;49.310;8.646;2022-08-21T00:32:58;100553.66;;;21.41;54.13
19736;BME280;32064;49.310;8.646;2022-08-21T00:35:28;100561.34;;;21.36;54.09
19736;BME280;32064;49.310;8.646;2022-08-21T00:37:54;100555.50;;;21.33;54.79
19736;BME280;32064;49.310;8.646;2022-08-21T00:40:28;100551.38;;;21.22;54.72
19736;BME280;32064;49.310;8.646;2022-08-21T00:42:54;100561.59;;;21.18;55.23
19736;BME280;32064;49.310;8.646;2022-08-21T00:45:23;100549.25;;;21.09;54.72
19736;BME280;32064;49.310;8.646;2022-08-21T00:47:50;100555.09;;;21.13;55.45
19736;BME280;32064;49.310;8.646;2022-08-21T00:50:16;100551.56;;;21.12;54.79
19736;BME280;32064;49.310;8.646;2022-08-21T00:52:42;100552.91;;;21.08;55.04
19736;BME280;32064;49.310;8.646;2022-08-21T00:55:09;100547.59;;;21.00;54.91
19736;BME280;32064;49.310;8.646;2022-08-21T00:57:43;100551.28;;;20.91;55.49
19736;BME280;32064;49.310;8.646;2022-08-21T01:00:16;100557.16;;;20.86;56.10
19736;BME280;32064;49.310;8.646;2022-08-21T01:02:43;100548.28;;;20.85;55.76
19736;BME280;32064;49.310;8.646;2022-08-21T01:05:10;100553.84;;;20.84;56.09
19736;BME280;32064;49.310;8.646;2022-08-21T01:07:36;100553.97;;;20.82;55.88
19736;BME280;32064;49.310;8.646;2022-08-21T01:10:03;100557.19;;;20.78;55.73
19736;BME280;32064;49.310;8.646;2022-08-21T01:12:28;100561.19;;;20.74;55.67
19736;BME280;32064;49.310;8.646;2022-08-21T01:14:54;100559.00;;;20.69;56.42
19736;BME280;32064;49.310;8.646;2022-08-21T01:17:20;100553.72;;;20.61;56.17
19736;BME280;32064;49.310;8.646;2022-08-21T01:19:46;100559.22;;;20.59;56.54
19736;BME280;32064;49.310;8.646;2022-08-21T01:22:12;100557.72;;;20.57;56.58
19736;BME280;32064;49.310;8.646;2022-08-21T01:24:37;100553.38;;;20.56;57.22
19736;BME280;32064;49.310;8.646;2022-08-21T01:27:03;100550.19;;;20.52;56.53
19736;BME280;32064;49.310;8.646;2022-08-21T01:29:34;100552.66;;;20.46;57.50
19736;BME280;32064;49.310;8.646;2022-08-21T01:32:08;100558.34;;;20.42;57.46
19736;BME280;32064;49.310;8.646;2022-08-21T01:34:36;100558.69;;;20.39;56.73
19736;BME280;32064;49.310;8.646;2022-08-21T01:37:02;100557.53;;;20.42;56.85
19736;BME280;32064;49.310;8.646;2022-08-21T01:39:28;100556.69;;;20.41;56.60
19736;BME280;32064;49.310;8.646;2022-08-21T01:41:54;100552.19;;;20.42;56.54
19736;BME280;32064;49.310;8.646;2022-08-21T01:44:23;100552.66;;;20.37;56.50
19736;BME280;32064;49.310;8.646;2022-08-21T01:46:49;100550.81;;;20.38;56.66
19736;BME280;32064;49.310;8.646;2022-08-21T01:49:15;100544.84;;;20.36;56.84
19736;BME280;32064;49.310;8.646;2022-08-21T01:51:41;100548.50;;;20.35;56.00
19736;BME280;32064;49.310;8.646;2022-08-21T01:54:07;100548.00;;;20.31;57.44
19736;BME280;32064;49.310;8.646;2022-08-21T01:56:45;100554.34;;;20.30;56.89
19736;BME280;32064;49.310;8.646;2022-08-21T01:59:12;100551.50;;;20.32;57.03
19736;BME280;32064;49.310;8.646;2022-08-21T02:01:37;100550.00;;;20.29;57.13
19736;BME280;32064;49.310;8.646;2022-08-21T02:04:05;100550.66;;;20.23;57.00
19736;BME280;32064;49.310;8.646;2022-08-21T02:06:31;100541.97;;;20.21;57.47
19736;BME280;32064;49.310;8.646;2022-08-21T02:08:57;100542.31;;;20.18;57.32
19736;BME280;32064;49.310;8.646;2022-08-21T02:11:23;100541.66;;;20.16;57.37
19736;BME280;32064;49.310;8.646;2022-08-21T02:13:49;100539.97;;;20.15;57.32
19736;BME280;32064;49.310;8.646;2022-08-21T02:16:14;100546.00;;;20.09;57.26
19736;BME280;32064;49.310;8.646;2022-08-21T02:18:40;100543.16;;;20.02;57.33
19736;BME280;32064;49.310;8.646;2022-08-21T02:21:06;100537.97;;;20.01;57.19
19736;BME280;32064;49.310;8.646;2022-08-21T02:23:32;100530.28;;;19.98;57.24
19736;BME280;32064;49.310;8.646;2022-08-21T02:25:58;100533.28;;;19.94;57.12
19736;BME280;32064;49.310;8.646;2022-08-21T02:28:24;100531.78;;;19.92;57.67
19736;BME280;32064;49.310;8.646;2022-08-21T02:30:50;100526.63;;;19.90;57.17
19736;BME280;32064;49.310;8.646;2022-08-21T02:33:16;100533.13;;;19.88;58.36
19736;BME280;32064;49.310;8.646;2022-08-21T02:35:43;100526.59;;;19.82;57.48
19736;BME280;32064;49.310;8.646;2022-08-21T02:38:13;100525.06;;;19.71;57.79
19736;BME280;32064;49.310;8.646;2022-08-21T02:40:41;100523.56;;;19.69;58.70
19736;BME280;32064;49.310;8.646;2022-08-21T02:43:08;100523.19;;;19.64;58.14
19736;BME280;32064;49.310;8.646;2022-08-21T02:45:34;100525.34;;;19.60;58.66
19736;BME280;32064;49.310;8.646;2022-08-21T02:48:08;100524.03;;;19.56;58.52
19736;BME280;32064;49.310;8.646;2022-08-21T02:50:41;100520.34;;;19.57;59.46
19736;BME280;32064;49.310;8.646;2022-08-21T02:53:08;100530.69;;;19.60;58.52
19736;BME280;32064;49.310;8.646;2022-08-21T02:55:35;100529.66;;;19.53;59.51
19736;BME280;32064;49.310;8.646;2022-08-21T02:58:06;100528.66;;;19.46;58.58
19736;BME280;32064;49.310;8.646;2022-08-21T03:00:32;100530.50;;;19.45;58.99
19736;BME280;32064;49.310;8.646;2022-08-21T03:02:58;100527.97;;;19.44;59.20
19736;BME280;32064;49.310;8.646;2022-08-21T03:05:25;100529.31;;;19.40;59.21
19736;BME280;32064;49.310;8.646;2022-08-21T03:07:51;100533.13;;;19.37;59.33
19736;BME280;32064;49.310;8.646;2022-08-21T03:10:19;100523.44;;;19.36;60.13
19736;BME280;32064;49.310;8.646;2022-08-21T03:12:45;100524.94;;;19.31;58.92
19736;BME280;32064;49.310;8.646;2022-08-21T03:15:14;100525.09;;;19.29;60.00
19736;BME280;32064;49.310;8.646;2022-08-21T03:17:40;100526.94;;;19.28;59.01
19736;BME280;32064;49.310;8.646;2022-08-21T03:20:06;100531.13;;;19.31;59.59
19736;BME280;32064;49.310;8.646;2022-08-21T03:22:33;100525.78;;;19.31;59.12
19736;BME280;32064;49.310;8.646;2022-08-21T03:24:59;100537.75;;;19.27;60.32
19736;BME280;32064;49.310;8.646;2022-08-21T03:27:25;100528.22;;;19.24;60.31
19736;BME280;32064;49.310;8.646;2022-08-21T03:29:54;100538.06;;;19.24;59.40
19736;BME280;32064;49.310;8.646;2022-08-21T03:32:20;100532.75;;;19.24;60.22
19736;BME280;32064;49.310;8.646;2022-08-21T03:34:46;100534.72;;;19.22;59.76
19736;BME280;32064;49.310;8.646;2022-08-21T03:37:12;100531.41;;;19.20;60.37
19736;BME280;32064;49.310;8.646;2022-08-21T03:39:38;100530.72;;;19.18;60.86
19736;BME280;32064;49.310;8.646;2022-08-21T03:42:04;100518.84;;;19.12;60.78
19736;BME280;32064;49.310;8.646;2022-08-21T03:44:32;100525.84;;;19.13;60.46
19736;BME280;32064;49.310;8.646;2022-08-21T03:46:58;100529.66;;;19.11;60.46
19736;BME280;32064;49.310;8.646;2022-08-21T03:49:24;100536.00;;;19.10;60.54
19736;BME280;32064;49.310;8.646;2022-08-21T03:51:50;100534.34;;;19.09;60.76
19736;BME280;32064;49.310;8.646;2022-08-21T03:54:15;100530.31;;;19.04;60.86
19736;BME280;32064;49.310;8.646;2022-08-21T03:56:41;100533.16;;;19.03;61.26
19736;BME280;32064;49.310;8.646;2022-08-21T03:59:07;100535.97;;;19.01;60.58
19736;BME280;32064;49.310;8.646;2022-08-21T04:01:33;100539.78;;;18.99;61.21
19736;BME280;32064;49.310;8.646;2022-08-21T04:03:59;100539.13;;;18.97;61.51
19736;BME280;32064;49.310;8.646;2022-08-21T04:06:24;100549.78;;;18.97;61.33
19736;BME280;32064;49.310;8.646;2022-08-21T04:08:52;100549.25;;;18.93;60.56
19736;BME280;32064;49.310;8.646;2022-08-21T04:11:19;100550.72;;;18.88;60.95
19736;BME280;32064;49.310;8.646;2022-08-21T04:13:44;100552.88;;;18.84;61.99
19736;BME280;32064;49.310;8.646;2022-08-21T04:16:11;100561.88;;;18.83;61.37
19736;BME280;32064;49.310;8.646;2022-08-21T04:18:37;100563.72;;;18.82;60.84
19736;BME280;32064;49.310;8.646;2022-08-21T04:21:03;100565.69;;;18.80;62.03
19736;BME280;32064;49.310;8.646;2022-08-21T04:23:29;100562.34;;;18.78;61.31
19736;BME280;32064;49.310;8.646;2022-08-21T04:25:56;100568.28;;;18.72;61.64
19736;BME280;32064;49.310;8.646;2022-08-21T04:28:24;100557.56;;;18.64;60.77
19736;BME280;32064;49.310;8.646;2022-08-21T04:30:53;100566.88;;;18.60;61.19
19736;BME280;32064;49.310;8.646;2022-08-21T04:33:19;100569.66;;;18.58;61.06
19736;BME280;32064;49.310;8.646;2022-08-21T04:35:45;100564.19;;;18.60;61.51
19736;BME280;32064;49.310;8.646;2022-08-21T04:38:10;100574.00;;;18.59;61.04
19736;BME280;32064;49.310;8.646;2022-08-21T04:40:36;100589.84;;;18.61;61.56
19736;BME280;32064;49.310;8.646;2022-08-21T04:43:07;100582.00;;;18.59;60.62
19736;BME280;32064;49.310;8.646;2022-08-21T04:45:40;100579.94;;;18.53;61.38
19736;BME280;32064;49.310;8.646;2022-08-21T04:48:08;100583.44;;;18.54;61.66
19736;BME280;32064;49.310;8.646;2022-08-21T04:50:50;100590.09;;;18.50;61.79
19736;BME280;32064;49.310;8.646;2022-08-21T04:55:58;100593.97;;;18.55;60.87
19736;BME280;32064;49.310;8.646;2022-08-21T04:58:26;100592.44;;;18.53;63.05
19736;BME280;32064;49.310;8.646;2022-08-21T05:00:54;100583.44;;;18.54;61.71
19736;BME280;32064;49.310;8.646;2022-08-21T05:03:21;100591.13;;;18.57;62.13
19736;BME280;32064;49.310;8.646;2022-08-21T05:05:48;100595.31;;;18.59;62.23
19736;BME280;32064;49.310;8.646;2022-08-21T05:08:16;100593.34;;;18.61;62.45
19736;BME280;32064;49.310;8.646;2022-08-21T05:10:43;100599.03;;;18.67;62.22
19736;BME280;32064;49.310;8.646;2022-08-21T05:13:10;100595.06;;;18.71;63.07
19736;BME280;32064;49.310;8.646;2022-08-21T05:15:38;100591.25;;;18.73;62.93
19736;BME280;32064;49.310;8.646;2022-08-21T05:18:04;100598.31;;;18.74;62.99
19736;BME280;32064;49.310;8.646;2022-08-21T05:20:29;100604.31;;;18.76;63.32
19736;BME280;32064;49.310;8.646;2022-08-21T05:22:55;100604.84;;;18.80;62.19
19736;BME280;32064;49.310;8.646;2022-08-21T05:25:20;100604.69;;;18.81;63.37
19736;BME280;32064;49.310;8.646;2022-08-21T05:27:46;100616.72;;;18.86;63.53
19736;BME280;32064;49.310;8.646;2022-08-21T05:30:13;100604.41;;;18.93;62.00
19736;BME280;32064;49.310;8.646;2022-08-21T05:32:38;100605.25;;;18.93;62.56
19736;BME280;32064;49.310;8.646;2022-08-21T05:35:07;100599.78;;;18.95;62.23
19736;BME280;32064;49.310;8.646;2022-08-21T05:37:33;100607.47;;;18.98;62.76
19736;BME280;32064;49.310;8.646;2022-08-21T05:40:00;100603.31;;;19.03;62.71
19736;BME280;32064;49.310;8.646;2022-08-21T05:42:26;100596.66;;;19.07;63.21
19736;BME280;32064;49.310;8.646;2022-08-21T05:44:51;100598.19;;;19.10;62.44
19736;BME280;32064;49.310;8.646;2022-08-21T05:47:17;100605.72;;;19.15;63.00
19736;BME280;32064;49.310;8.646;2022-08-21T05:49:42;100606.09;;;19.20;63.70
19736;BME280;32064;49.310;8.646;2022-08-21T05:52:07;100608.63;;;19.29;62.75
19736;BME280;32064;49.310;8.646;2022-08-21T05:54:33;100602.19;;;19.40;63.39
19736;BME280;32064;49.310;8.646;2022-08-21T05:56:58;100604.06;;;19.48;63.35
19736;BME280;32064;49.310;8.646;2022-08-21T05:59:24;100610.59;;;19.54;62.89
19736;BME280;32064;49.310;8.646;2022-08-21T06:01:49;100608.25;;;19.59;62.91
19736;BME280;32064;49.310;8.646;2022-08-21T06:04:17;100609.13;;;19.59;63.40
19736;BME280;32064;49.310;8.646;2022-08-21T06:06:43;100610.31;;;19.65;63.68
19736;BME280;32064;49.310;8.646;2022-08-21T06:09:08;100609.19;;;19.67;63.42
19736;BME280;32064;49.310;8.646;2022-08-21T06:11:34;100609.72;;;19.79;63.05
19736;BME280;32064;49.310;8.646;2022-08-21T06:14:00;100613.91;;;19.82;62.83
19736;BME280;32064;49.310;8.646;2022-08-21T06:16:26;100615.06;;;19.87;63.01
19736;BME280;32064;49.310;8.646;2022-08-21T06:18:52;100613.59;;;19.93;63.24
19736;BME280;32064;49.310;8.646;2022-08-21T06:21:18;100614.94;;;20.05;62.93
19736;BME280;32064;49.310;8.646;2022-08-21T06:23:43;100616.97;;;20.19;63.00
19736;BME280;32064;49.310;8.646;2022-08-21T06:26:10;100617.47;;;20.31;61.84
19736;BME280;32064;49.310;8.646;2022-08-21T06:28:36;100618.19;;;20.50;62.32
19736;BME280;32064;49.310;8.646;2022-08-21T06:31:13;100618.03;;;20.59;62.29
19736;BME280;32064;49.310;8.646;2022-08-21T06:33:42;100625.03;;;20.77;61.68
19736;BME280;32064;49.310;8.646;2022-08-21T06:36:08;100619.34;;;20.96;61.90
19736;BME280;32064;49.310;8.646;2022-08-21T06:38:34;100610.44;;;21.12;61.51
19736;BME280;32064;49.310;8.646;2022-08-21T06:41:00;100620.25;;;21.28;61.01
19736;BME280;32064;49.310;8.646;2022-08-21T06:43:26;100620.72;;;21.48;60.25
19736;BME280;32064;49.310;8.646;2022-08-21T06:45:51;100626.66;;;21.74;60.07
19736;BME280;32064;49.310;8.646;2022-08-21T06:48:16;100617.16;;;22.26;59.20
19736;BME280;32064;49.310;8.646;2022-08-21T06:50:42;100623.66;;;22.70;57.96
19736;BME280;32064;49.310;8.646;2022-08-21T06:53:11;100626.75;;;24.00;56.17
19736;BME280;32064;49.310;8.646;2022-08-21T06:55:37;100624.81;;;27.84;47.02
19736;BME280;32064;49.310;8.646;2022-08-21T06:58:04;100632.97;;;29.77;42.42
19736;BME280;32064;49.310;8.646;2022-08-21T07:00:31;100626.19;;;31.18;39.53
19736;BME280;32064;49.310;8.646;2022-08-21T07:02:59;100636.63;;;32.02;38.11
19736;BME280;32064;49.310;8.646;2022-08-21T07:05:28;100624.41;;;33.00;37.01
19736;BME280;32064;49.310;8.646;2022-08-21T07:07:54;100629.44;;;33.69;35.46
19736;BME280;32064;49.310;8.646;2022-08-21T07:10:20;100624.94;;;34.34;35.49
19736;BME280;32064;49.310;8.646;2022-08-21T07:12:45;100626.97;;;34.49;33.88
19736;BME280;32064;49.310;8.646;2022-08-21T07:15:11;100632.97;;;34.83;33.73
19736;BME280;32064;49.310;8.646;2022-08-21T07:17:36;100627.25;;;35.27;32.40
19736;BME280;32064;49.310;8.646;2022-08-21T07:20:03;100627.47;;;35.79;32.44
19736;BME280;32064;49.310;8.646;2022-08-21T07:22:29;100625.09;;;36.28;31.79
19736;BME280;32064;49.310;8.646;2022-08-21T07:24:55;100624.00;;;36.60;31.06
19736;BME280;32064;49.310;8.646;2022-08-21T07:27:21;100617.66;;;37.00;29.92
19736;BME280;32064;49.310;8.646;2022-08-21T07:29:46;100615.59;;;37.37;29.11
19736;BME280;32064;49.310;8.646;2022-08-21T07:32:12;100617.75;;;37.55;29.18
19736;BME280;32064;49.310;8.646;2022-08-21T07:34:38;100607.56;;;37.61;29.01
19736;BME280;32064;49.310;8.646;2022-08-21T07:37:03;100611.78;;;37.87;28.63
19736;BME280;32064;49.310;8.646;2022-08-21T07:39:29;100613.09;;;38.05;27.81
19736;BME280;32064;49.310;8.646;2022-08-21T07:41:54;100608.06;;;38.47;27.58
19736;BME280;32064;49.310;8.646;2022-08-21T07:44:20;100607.63;;;38.63;28.00
19736;BME280;32064;49.310;8.646;2022-08-21T07:46:45;100608.69;;;38.97;26.90
19736;BME280;32064;49.310;8.646;2022-08-21T07:49:11;100607.47;;;39.08;27.58
19736;BME280;32064;49.310;8.646;2022-08-21T07:51:36;100602.34;;;39.20;26.52
19736;BME280;32064;49.310;8.646;2022-08-21T07:54:02;100591.94;;;39.41;26.27
19736;BME280;32064;49.310;8.646;2022-08-21T07:56:29;100597.38;;;39.46;26.68
19736;BME280;32064;49.310;8.646;2022-08-21T07:58:55;100605.97;;;39.64;25.86
19736;BME280;32064;49.310;8.646;2022-08-21T08:01:22;100595.94;;;39.92;25.86
19736;BME280;32064;49.310;8.646;2022-08-21T08:03:48;100600.13;;;40.22;26.04
19736;BME280;32064;49.310;8.646;2022-08-21T08:06:13;100599.16;;;40.13;25.77
19736;BME280;32064;49.310;8.646;2022-08-21T08:08:39;100597.00;;;40.43;25.54
19736;BME280;32064;49.310;8.646;2022-08-21T08:11:06;100593.16;;;40.44;25.74
19736;BME280;32064;49.310;8.646;2022-08-21T08:13:38;100592.72;;;40.69;24.99
19736;BME280;32064;49.310;8.646;2022-08-21T08:16:04;100587.81;;;40.94;24.87
19736;BME280;32064;49.310;8.646;2022-08-21T08:18:29;100592.50;;;40.79;24.45
19736;BME280;32064;49.310;8.646;2022-08-21T08:20:55;100586.59;;;40.86;24.20
19736;BME280;32064;49.310;8.646;2022-08-21T08:23:21;100589.56;;;41.17;24.12
19736;BME280;32064;49.310;8.646;2022-08-21T08:25:47;100596.78;;;41.41;23.26
19736;BME280;32064;49.310;8.646;2022-08-21T08:28:13;100583.50;;;41.29;23.75
19736;BME280;32064;49.310;8.646;2022-08-21T08:30:38;100589.22;;;41.46;24.04
19736;BME280;32064;49.310;8.646;2022-08-21T08:33:04;100584.28;;;39.95;24.69
19736;BME280;32064;49.310;8.646;2022-08-21T08:35:29;100572.75;;;37.41;27.33
19736;BME280;32064;49.310;8.646;2022-08-21T08:37:55;100570.97;;;38.97;26.17
19736;BME280;32064;49.310;8.646;2022-08-21T08:40:29;100571.13;;;40.06;25.71
19736;BME280;32064;49.310;8.646;2022-08-21T08:42:57;100564.59;;;40.81;25.18
19736;BME280;32064;49.310;8.646;2022-08-21T08:45:23;100567.00;;;41.38;24.21
19736;BME280;32064;49.310;8.646;2022-08-21T08:48:00;100560.19;;;41.21;23.91
19736;BME280;32064;49.310;8.646;2022-08-21T08:53:12;100556.44;;;41.67;23.36
19736;BME280;32064;49.310;8.646;2022-08-21T08:55:41;100558.19;;;41.86;23.14
19736;BME280;32064;49.310;8.646;2022-08-21T08:58:12;100551.59;;;41.95;23.30
19736;BME280;32064;49.310;8.646;2022-08-21T09:00:46;100543.16;;;42.54;22.37
19736;BME280;32064;49.310;8.646;2022-08-21T09:03:12;100551.94;;;42.48;22.34
19736;BME280;32064;49.310;8.646;2022-08-21T09:05:47;100540.19;;;42.42;22.50
19736;BME280;32064;49.310;8.646;2022-08-21T09:08:32;100550.00;;;42.88;22.09
19736;BME280;32064;49.310;8.646;2022-08-21T09:11:04;100540.44;;;42.72;22.12
19736;BME280;32064;49.310;8.646;2022-08-21T09:21:51;100520.75;;;43.83;21.47
19736;BME280;32064;49.310;8.646;2022-08-21T09:24:40;100521.56;;;44.01;21.11
19736;BME280;32064;49.310;8.646;2022-08-21T09:27:10;100526.78;;;44.11;20.93
19736;BME280;32064;49.310;8.646;2022-08-21T09:29:40;100524.63;;;44.17;20.78
19736;BME280;32064;49.310;8.646;2022-08-21T09:32:19;100511.28;;;44.01;20.22
19736;BME280;32064;49.310;8.646;2022-08-21T09:35:10;100509.56;;;44.26;19.92
19736;BME280;32064;49.310;8.646;2022-08-21T09:37:47;100515.16;;;44.18;20.22
19736;BME280;32064;49.310;8.646;2022-08-21T09:42:55;100509.56;;;44.26;20.05
19736;BME280;32064;49.310;8.646;2022-08-21T09:45:22;100509.38;;;44.40;20.44
19736;BME280;32064;49.310;8.646;2022-08-21T09:47:48;100503.88;;;44.61;19.96
19736;BME280;32064;49.310;8.646;2022-08-21T09:50:26;100504.69;;;44.62;20.04
19736;BME280;32064;49.310;8.646;2022-08-21T09:52:57;100512.00;;;44.75;19.81
19736;BME280;32064;49.310;8.646;2022-08-21T09:55:37;100505.56;;;44.53;19.91
19736;BME280;32064;49.310;8.646;2022-08-21T09:58:31;100506.81;;;44.65;20.13
19736;BME280;32064;49.310;8.646;2022-08-21T10:01:00;100504.59;;;44.88;19.78
19736;BME280;32064;49.310;8.646;2022-08-21T10:03:26;100496.41;;;44.53;19.80
19736;BME280;32064;49.310;8.646;2022-08-21T10:06:04;100508.66;;;44.05;20.11
19736;BME280;32064;49.310;8.646;2022-08-21T10:08:33;100497.41;;;43.84;20.49
19736;BME280;32064;49.310;8.646;2022-08-21T10:11:05;100497.34;;;44.19;20.25
19736;BME280;32064;49.310;8.646;2022-08-21T10:16:31;100498.94;;;44.67;19.25
19736;BME280;32064;49.310;8.646;2022-08-21T10:19:18;100487.47;;;44.77;19.36
19736;BME280;32064;49.310;8.646;2022-08-21T10:22:17;100492.00;;;44.81;19.04
19736;BME280;32064;49.310;8.646;2022-08-21T10:25:06;100487.47;;;45.28;18.12
19736;BME280;32064;49.310;8.646;2022-08-21T10:41:04;100470.31;;;43.89;19.50
19736;BME280;32064;49.310;8.646;2022-08-21T10:46:42;100461.09;;;44.62;18.93
19736;BME280;32064;49.310;8.646;2022-08-21T10:49:22;100466.22;;;44.04;19.17
19736;BME280;32064;49.310;8.646;2022-08-21T10:54:53;100460.16;;;44.11;19.27
19736;BME280;32064;49.310;8.646;2022-08-21T11:00:45;100463.50;;;44.64;18.82
19736;BME280;32064;49.310;8.646;2022-08-21T11:03:16;100464.69;;;45.13;18.82
19736;BME280;32064;49.310;8.646;2022-08-21T11:06:08;100460.56;;;45.19;17.92
19736;BME280;32064;49.310;8.646;2022-08-21T11:08:41;100460.25;;;45.54;17.97
19736;BME280;32064;49.310;8.646;2022-08-21T11:11:13;100457.50;;;45.66;18.04
19736;BME280;32064;49.310;8.646;2022-08-21T11:18:57;100439.00;;;45.83;16.78
19736;BME280;32064;49.310;8.646;2022-08-21T11:21:42;100444.88;;;45.36;17.52
19736;BME280;32064;49.310;8.646;2022-08-21T11:24:28;100432.91;;;45.35;17.04
19736;BME280;32064;49.310;8.646;2022-08-21T11:27:14;100429.00;;;44.94;17.23
19736;BME280;32064;49.310;8.646;2022-08-21T11:29:47;100421.09;;;44.16;18.36
19736;BME280;32064;49.310;8.646;2022-08-21T11:35:13;100417.03;;;42.88;18.79
19736;BME280;32064;49.310;8.646;2022-08-21T11:40:59;100419.22;;;41.80;19.42
19736;BME280;32064;49.310;8.646;2022-08-21T11:46:12;100407.75;;;40.55;19.33
19736;BME280;32064;49.310;8.646;2022-08-21T11:51:53;100409.81;;;39.43;20.75
19736;BME280;32064;49.310;8.646;2022-08-21T11:55:00;100400.34;;;39.30;21.28
19736;BME280;32064;49.310;8.646;2022-08-21T11:57:48;100405.44;;;39.42;21.14
19736;BME280;32064;49.310;8.646;2022-08-21T12:02:53;100396.13;;;39.19;20.71
19736;BME280;32064;49.310;8.646;2022-08-21T12:05:30;100397.47;;;39.02;20.68
19736;BME280;32064;49.310;8.646;2022-08-21T12:08:15;100389.06;;;38.94;20.91
19736;BME280;32064;49.310;8.646;2022-08-21T12:13:31;100390.56;;;39.05;20.86
19736;BME280;32064;49.310;8.646;2022-08-21T12:16:07;100387.28;;;39.03;20.70
19736;BME280;32064;49.310;8.646;2022-08-21T12:18:33;100388.09;;;39.03;20.99
19736;BME280;32064;49.310;8.646;2022-08-21T12:21:03;100384.19;;;38.85;21.79
19736;BME280;32064;49.310;8.646;2022-08-21T12:23:33;100375.28;;;38.56;21.69
19736;BME280;32064;49.310;8.646;2022-08-21T12:26:10;100377.94;;;38.37;21.39
19736;BME280;32064;49.310;8.646;2022-08-21T12:28:39;100374.34;;;38.17;21.14
19736;BME280;32064;49.310;8.646;2022-08-21T12:31:17;100378.25;;;38.11;21.38
19736;BME280;32064;49.310;8.646;2022-08-21T12:33:51;100377.88;;;37.94;21.54
19736;BME280;32064;49.310;8.646;2022-08-21T12:36:21;100362.78;;;37.91;20.74
19736;BME280;32064;49.310;8.646;2022-08-21T12:38:56;100365.44;;;38.02;21.49
19736;BME280;32064;49.310;8.646;2022-08-21T12:41:41;100369.19;;;37.52;21.12
19736;BME280;32064;49.310;8.646;2022-08-21T12:44:13;100365.00;;;37.26;21.49
19736;BME280;32064;49.310;8.646;2022-08-21T12:46:46;100360.19;;;37.07;22.03
19736;BME280;32064;49.310;8.646;2022-08-21T12:51:54;100364.91;;;37.36;21.20
19736;BME280;32064;49.310;8.646;2022-08-21T12:54:25;100362.94;;;37.42;21.92
19736;BME280;32064;49.310;8.646;2022-08-21T12:57:03;100358.25;;;37.42;21.64
19736;BME280;32064;49.310;8.646;2022-08-21T12:59:31;100350.13;;;37.32;21.43
19736;BME280;32064;49.310;8.646;2022-08-21T13:02:00;100355.66;;;37.27;21.78
19736;BME280;32064;49.310;8.646;2022-08-21T13:04:38;100342.38;;;37.05;21.84
19736;BME280;32064;49.310;8.646;2022-08-21T13:07:11;100338.28;;;36.97;21.51
19736;BME280;32064;49.310;8.646;2022-08-21T13:09:51;100353.03;;;36.67;21.24
19736;BME280;32064;49.310;8.646;2022-08-21T13:12:18;100353.72;;;36.83;21.47
19736;BME280;32064;49.310;8.646;2022-08-21T13:14:45;100352.88;;;36.88;21.22
19736;BME280;32064;49.310;8.646;2022-08-21T13:17:14;100348.69;;;37.00;21.32
19736;BME280;32064;49.310;8.646;2022-08-21T13:19:40;100341.56;;;36.99;21.23
19736;BME280;32064;49.310;8.646;2022-08-21T13:22:14;100346.22;;;37.04;21.23
19736;BME280;32064;49.310;8.646;2022-08-21T13:24:39;100351.72;;;37.04;21.28
19736;BME280;32064;49.310;8.646;2022-08-21T13:27:17;100358.56;;;37.06;21.13
19736;BME280;32064;49.310;8.646;2022-08-21T13:29:43;100345.66;;;37.07;20.94
19736;BME280;32064;49.310;8.646;2022-08-21T13:32:19;100350.00;;;37.13;20.78
19736;BME280;32064;49.310;8.646;2022-08-21T13:34:46;100338.78;;;37.10;21.13
19736;BME280;32064;49.310;8.646;2022-08-21T13:37:13;100340.94;;;37.13;20.96
19736;BME280;32064;49.310;8.646;2022-08-21T13:39:39;100340.44;;;37.05;20.55
19736;BME280;32064;49.310;8.646;2022-08-21T13:42:10;100343.25;;;36.95;20.76
19736;BME280;32064;49.310;8.646;2022-08-21T13:44:43;100335.81;;;36.96;20.65
19736;BME280;32064;49.310;8.646;2022-08-21T13:47:11;100335.31;;;36.89;20.53
19736;BME280;32064;49.310;8.646;2022-08-21T13:49:49;100344.78;;;36.67;20.12
19736;BME280;32064;49.310;8.646;2022-08-21T13:54:41;100329.44;;;36.66;20.46
19736;BME280;32064;49.310;8.646;2022-08-21T13:57:31;100326.19;;;36.59;20.47
19736;BME280;32064;49.310;8.646;2022-08-21T14:02:43;100331.13;;;36.57;20.37
19736;BME280;32064;49.310;8.646;2022-08-21T14:05:22;100331.19;;;36.36;19.65
19736;BME280;32064;49.310;8.646;2022-08-21T14:07:50;100323.88;;;36.22;20.52
19736;BME280;32064;49.310;8.646;2022-08-21T14:10:22;100323.63;;;36.18;19.58
19736;BME280;32064;49.310;8.646;2022-08-21T14:12:55;100320.34;;;36.11;19.76